createdAt,value
2023-10-03T00:00:19.041Z,29.03
2023-10-03T00:00:49.195Z,29.02
2023-10-03T00:01:19.196Z,29.02
2023-10-03T00:01:49.278Z,29.05
2023-10-03T00:02:19.385Z,29.02
2023-10-03T00:02:49.634Z,29.02
2023-10-03T00:03:19.596Z,29.02
2023-10-03T00:03:49.701Z,29.03
2023-10-03T00:04:19.704Z,29.03
2023-10-03T00:04:49.762Z,29.03
2023-10-03T00:05:19.905Z,28.99
2023-10-03T00:05:49.889Z,29.02
2023-10-03T00:06:49.888Z,28.99
2023-10-03T00:07:19.966Z,29.02
2023-10-03T00:07:50.044Z,29.02
2023-10-03T00:08:20.268Z,28.99
2023-10-03T00:08:50.224Z,29.03
2023-10-03T00:09:20.228Z,29.02
2023-10-03T00:09:50.302Z,29.02
2023-10-03T00:10:20.376Z,29.02
2023-10-03T00:10:50.454Z,29.03
2023-10-03T00:11:20.599Z,29.02
2023-10-03T00:11:50.587Z,29.02
2023-10-03T00:12:20.665Z,29.01
2023-10-03T00:12:50.742Z,29.01
2023-10-03T00:13:20.818Z,28.99
2023-10-03T00:13:50.889Z,29.02
2023-10-03T00:14:20.976Z,29.02
2023-10-03T00:14:51.063Z,29.01
2023-10-03T00:15:21.165Z,29.01
2023-10-03T00:15:51.248Z,29.01
2023-10-03T00:16:21.301Z,29.02
2023-10-03T00:16:51.382Z,29.01
2023-10-03T00:17:21.464Z,29.03
2023-10-03T00:17:51.589Z,29.01
2023-10-03T00:18:21.570Z,29.01
2023-10-03T00:18:51.559Z,29.01
2023-10-03T00:19:21.657Z,29.02
2023-10-03T00:19:51.796Z,28.99
2023-10-03T00:20:21.780Z,29.02
2023-10-03T00:20:51.881Z,29.02
2023-10-03T00:21:21.839Z,29.01
2023-10-03T00:21:51.913Z,29.01
2023-10-03T00:22:21.980Z,29.01
2023-10-03T00:22:52.300Z,28.99
2023-10-03T00:23:22.101Z,29.01
2023-10-03T00:23:52.105Z,29.01
2023-10-03T00:24:22.170Z,29.01
2023-10-03T00:24:52.251Z,29.02
2023-10-03T00:25:22.321Z,29.01
2023-10-03T00:25:52.400Z,28.99
2023-10-03T00:26:22.507Z,29.01
2023-10-03T00:26:52.569Z,29.01
2023-10-03T00:27:22.637Z,28.99
2023-10-03T00:27:52.709Z,29.02
2023-10-03T00:28:22.800Z,29.01
2023-10-03T00:28:52.874Z,28.99
2023-10-03T00:29:22.979Z,28.99
2023-10-03T00:29:53.146Z,29.01
2023-10-03T00:30:23.098Z,28.99
2023-10-03T00:30:53.174Z,28.99
2023-10-03T00:31:23.301Z,28.98
2023-10-03T00:31:53.269Z,28.98
2023-10-03T00:32:23.397Z,28.99
2023-10-03T00:32:53.384Z,28.99
2023-10-03T00:33:23.495Z,29.01
2023-10-03T00:33:53.472Z,28.99
2023-10-03T00:34:23.558Z,29.01
2023-10-03T00:34:53.629Z,28.99
2023-10-03T00:35:23.719Z,28.99
2023-10-03T00:35:53.820Z,28.99
2023-10-03T00:36:23.806Z,28.99
2023-10-03T00:36:53.843Z,28.99
2023-10-03T00:37:23.916Z,29.01
2023-10-03T00:37:53.993Z,29.01
2023-10-03T00:38:24.212Z,28.99
2023-10-03T00:38:54.345Z,29.01
2023-10-03T00:39:24.242Z,28.99
2023-10-03T00:39:54.319Z,29.01
2023-10-03T00:40:24.389Z,28.96
2023-10-03T00:40:54.480Z,28.99
2023-10-03T00:41:24.568Z,29.02
2023-10-03T00:41:54.703Z,29.01
2023-10-03T00:42:24.656Z,28.99
2023-10-03T00:42:54.732Z,28.99
2023-10-03T00:43:24.812Z,29.01
2023-10-03T00:43:54.887Z,29.01
2023-10-03T00:44:25.022Z,28.99
2023-10-03T00:44:55.088Z,29.01
2023-10-03T00:45:25.175Z,28.99
2023-10-03T00:45:55.247Z,28.96
2023-10-03T00:46:25.390Z,28.99
2023-10-03T00:46:55.329Z,28.99
2023-10-03T00:47:25.449Z,28.99
2023-10-03T00:47:55.615Z,28.96
2023-10-03T00:48:25.588Z,29.01
2023-10-03T00:48:55.529Z,28.99
2023-10-03T00:49:25.551Z,28.99
2023-10-03T00:49:55.583Z,28.98
2023-10-03T00:50:25.969Z,28.98
2023-10-03T00:50:55.679Z,28.95
2023-10-03T00:51:25.825Z,28.99
2023-10-03T00:51:55.786Z,28.99
2023-10-03T00:52:25.804Z,28.99
2023-10-03T00:52:55.838Z,28.98
2023-10-03T00:53:25.921Z,28.98
2023-10-03T00:53:55.910Z,28.99
2023-10-03T00:54:25.932Z,28.96
2023-10-03T00:54:55.962Z,28.99
2023-10-03T00:55:25.995Z,28.99
2023-10-03T00:55:56.031Z,28.99
2023-10-03T00:56:26.140Z,28.95
2023-10-03T00:56:56.087Z,28.98
2023-10-03T00:57:26.161Z,28.96
2023-10-03T00:57:56.189Z,28.98
2023-10-03T00:58:26.226Z,28.96
2023-10-03T00:58:56.303Z,28.98
2023-10-03T00:59:26.406Z,28.99
2023-10-03T00:59:56.443Z,28.98
2023-10-03T01:00:26.519Z,28.95
2023-10-03T01:00:56.641Z,28.96
2023-10-03T01:01:26.706Z,28.98
2023-10-03T01:01:56.801Z,28.99
2023-10-03T01:02:27.160Z,28.99
2023-10-03T01:02:57.085Z,28.98
2023-10-03T01:03:27.084Z,28.98
2023-10-03T01:03:57.331Z,28.99
2023-10-03T01:04:27.230Z,28.95
2023-10-03T01:04:57.210Z,28.96
2023-10-03T01:05:27.311Z,28.98
2023-10-03T01:05:57.374Z,28.96
2023-10-03T01:06:27.486Z,28.96
2023-10-03T01:06:57.555Z,28.96
2023-10-03T01:07:27.650Z,28.98
2023-10-03T01:07:57.694Z,28.96
2023-10-03T01:08:27.784Z,28.96
2023-10-03T01:08:57.860Z,28.99
2023-10-03T01:09:27.925Z,28.96
2023-10-03T01:09:57.990Z,28.96
2023-10-03T01:10:28.097Z,28.99
2023-10-03T01:10:58.173Z,28.96
2023-10-03T01:11:28.322Z,28.96
2023-10-03T01:11:58.304Z,28.98
2023-10-03T01:12:28.375Z,28.96
2023-10-03T01:12:58.468Z,28.99
2023-10-03T01:13:28.555Z,28.95
2023-10-03T01:13:58.619Z,28.95
2023-10-03T01:14:28.709Z,28.96
2023-10-03T01:14:58.768Z,28.96
2023-10-03T01:15:28.844Z,28.98
2023-10-03T01:15:58.937Z,28.98
2023-10-03T01:16:29.072Z,28.98
2023-10-03T01:16:59.022Z,28.99
2023-10-03T01:17:29.141Z,28.98
2023-10-03T01:17:59.253Z,28.96
2023-10-03T01:18:29.252Z,28.95
2023-10-03T01:18:59.335Z,28.98
2023-10-03T01:19:29.307Z,28.96
2023-10-03T01:19:59.381Z,28.96
2023-10-03T01:20:29.493Z,28.96
2023-10-03T01:20:59.484Z,28.98
2023-10-03T01:21:29.543Z,28.98
2023-10-03T01:21:59.629Z,28.96
2023-10-03T01:22:29.686Z,28.96
2023-10-03T01:22:59.781Z,28.96
2023-10-03T01:23:29.836Z,28.96
2023-10-03T01:23:59.937Z,28.96
2023-10-03T01:24:30.012Z,28.95
2023-10-03T01:25:00.191Z,28.96
2023-10-03T01:25:30.183Z,28.96
2023-10-03T01:26:00.254Z,28.96
2023-10-03T01:26:30.348Z,28.96
2023-10-03T01:27:00.472Z,28.96
2023-10-03T01:27:30.463Z,28.94
2023-10-03T01:28:00.550Z,28.96
2023-10-03T01:28:30.629Z,28.94
2023-10-03T01:29:00.944Z,28.95
2023-10-03T01:29:30.758Z,28.95
2023-10-03T01:30:00.721Z,28.96
2023-10-03T01:30:30.823Z,28.95
2023-10-03T01:31:00.953Z,28.96
2023-10-03T01:31:30.902Z,28.94
2023-10-03T01:32:00.969Z,28.96
2023-10-03T01:32:31.130Z,28.96
2023-10-03T01:33:01.137Z,28.96
2023-10-03T01:33:31.132Z,28.95
2023-10-03T01:34:01.200Z,28.95
2023-10-03T01:34:31.278Z,28.96
2023-10-03T01:35:01.373Z,28.94
2023-10-03T01:35:31.492Z,28.94
2023-10-03T01:36:01.463Z,28.92
2023-10-03T01:36:31.535Z,28.94
2023-10-03T01:37:01.625Z,28.98
2023-10-03T01:37:31.699Z,28.95
2023-10-03T01:38:01.786Z,28.95
2023-10-03T01:38:31.939Z,28.95
2023-10-03T01:39:02.120Z,28.95
2023-10-03T01:39:31.945Z,28.96
2023-10-03T01:40:02.025Z,28.94
2023-10-03T01:40:32.107Z,28.96
2023-10-03T01:41:02.309Z,28.94
2023-10-03T01:41:32.299Z,28.95
2023-10-03T01:42:02.389Z,28.96
2023-10-03T01:42:32.449Z,28.94
2023-10-03T01:43:02.516Z,28.95
2023-10-03T01:43:32.607Z,28.94
2023-10-03T01:44:02.677Z,28.96
2023-10-03T01:44:32.797Z,28.94
2023-10-03T01:45:02.860Z,28.96
2023-10-03T01:45:32.933Z,28.95
2023-10-03T01:46:03.041Z,28.95
2023-10-03T01:46:33.136Z,28.95
2023-10-03T01:47:03.117Z,28.96
2023-10-03T01:47:33.244Z,28.94
2023-10-03T01:48:03.242Z,28.95
2023-10-03T01:48:33.230Z,28.95
2023-10-03T01:49:03.487Z,28.95
2023-10-03T01:49:33.332Z,28.95
2023-10-03T01:50:03.378Z,28.96
2023-10-03T01:50:33.441Z,28.94
2023-10-03T01:51:03.610Z,28.95
2023-10-03T01:51:33.536Z,28.95
2023-10-03T01:52:03.577Z,28.94
2023-10-03T01:52:33.603Z,28.91
2023-10-03T01:53:03.663Z,28.96
2023-10-03T01:53:33.768Z,28.95
2023-10-03T01:54:03.801Z,28.94
2023-10-03T01:54:33.852Z,28.91
2023-10-03T01:55:03.871Z,28.92
2023-10-03T01:55:33.908Z,28.95
2023-10-03T01:56:03.946Z,28.94
2023-10-03T01:56:34.009Z,28.91
2023-10-03T01:57:04.065Z,28.94
2023-10-03T01:57:34.126Z,28.95
2023-10-03T01:58:04.163Z,28.92
2023-10-03T01:58:34.218Z,28.92
2023-10-03T01:59:04.388Z,28.94
2023-10-03T01:59:34.418Z,28.92
2023-10-03T02:00:04.476Z,28.92
2023-10-03T02:00:34.544Z,28.94
2023-10-03T02:01:04.630Z,28.95
2023-10-03T02:01:34.746Z,28.92
2023-10-03T02:02:04.814Z,28.95
2023-10-03T02:02:34.907Z,28.92
2023-10-03T02:03:05.044Z,28.94
2023-10-03T02:03:34.966Z,28.95
2023-10-03T02:04:05.003Z,28.92
2023-10-03T02:04:35.190Z,28.94
2023-10-03T02:05:05.145Z,28.92
2023-10-03T02:05:35.385Z,28.95
2023-10-03T02:06:05.258Z,28.94
2023-10-03T02:06:35.340Z,28.92
2023-10-03T02:07:05.401Z,28.94
2023-10-03T02:07:35.485Z,28.92
2023-10-03T02:08:05.552Z,28.94
2023-10-03T02:08:35.673Z,28.94
2023-10-03T02:09:06.021Z,28.92
2023-10-03T02:09:35.797Z,28.96
2023-10-03T02:10:05.870Z,28.95
2023-10-03T02:10:35.935Z,28.94
2023-10-03T02:11:06.004Z,28.94
2023-10-03T02:11:36.157Z,28.92
2023-10-03T02:12:06.096Z,28.92
2023-10-03T02:12:36.168Z,28.94
2023-10-03T02:13:06.245Z,28.94
2023-10-03T02:13:36.460Z,28.92
2023-10-03T02:14:06.381Z,28.92
2023-10-03T02:14:36.494Z,28.92
2023-10-03T02:15:06.639Z,28.94
2023-10-03T02:15:36.588Z,28.95
2023-10-03T02:16:06.683Z,28.92
2023-10-03T02:16:36.766Z,28.94
2023-10-03T02:17:06.734Z,28.91
2023-10-03T02:17:36.844Z,28.94
2023-10-03T02:18:06.928Z,28.91
2023-10-03T02:18:36.946Z,28.89
2023-10-03T02:19:07.012Z,28.91
2023-10-03T02:19:37.076Z,28.92
2023-10-03T02:20:07.146Z,28.92
2023-10-03T02:20:37.308Z,28.91
2023-10-03T02:21:07.280Z,28.91
2023-10-03T02:21:37.358Z,28.94
2023-10-03T02:22:07.434Z,28.92
2023-10-03T02:22:37.502Z,28.92
2023-10-03T02:23:07.582Z,28.95
2023-10-03T02:23:37.764Z,28.91
2023-10-03T02:24:07.696Z,28.91
2023-10-03T02:24:37.768Z,28.92
2023-10-03T02:25:07.842Z,28.91
2023-10-03T02:25:37.932Z,28.92
2023-10-03T02:26:08.009Z,28.92
2023-10-03T02:26:38.131Z,28.89
2023-10-03T02:27:08.118Z,28.92
2023-10-03T02:27:38.215Z,28.92
2023-10-03T02:28:08.278Z,28.92
2023-10-03T02:28:38.361Z,28.94
2023-10-03T02:29:08.436Z,28.91
2023-10-03T02:29:38.524Z,28.92
2023-10-03T02:30:08.612Z,28.94
2023-10-03T02:30:38.692Z,28.89
2023-10-03T02:31:09.122Z,28.91
2023-10-03T02:31:38.934Z,28.89
2023-10-03T02:32:08.887Z,28.92
2023-10-03T02:32:39.055Z,28.92
2023-10-03T02:33:09.141Z,28.91
2023-10-03T02:33:39.110Z,28.89
2023-10-03T02:34:09.163Z,28.92
2023-10-03T02:34:39.253Z,28.89
2023-10-03T02:35:09.340Z,28.89
2023-10-03T02:35:39.469Z,28.91
2023-10-03T02:36:09.473Z,28.89
2023-10-03T02:36:39.551Z,28.92
2023-10-03T02:37:09.617Z,28.91
2023-10-03T02:37:39.681Z,28.89
2023-10-03T02:38:09.769Z,28.89
2023-10-03T02:38:40.125Z,28.91
2023-10-03T02:39:09.890Z,28.92
2023-10-03T02:39:39.968Z,28.89
2023-10-03T02:40:10.048Z,28.92
2023-10-03T02:40:40.117Z,28.89
2023-10-03T02:41:10.188Z,28.91
2023-10-03T02:41:42.767Z,28.89
2023-10-03T02:42:10.366Z,28.89
2023-10-03T02:42:40.432Z,28.89
2023-10-03T02:43:10.505Z,28.88
2023-10-03T02:43:40.581Z,28.92
2023-10-03T02:44:10.928Z,28.91
2023-10-03T02:44:40.807Z,28.88
2023-10-03T02:45:40.799Z,28.89
2023-10-03T02:46:10.902Z,28.92
2023-10-03T02:46:40.874Z,28.89
2023-10-03T02:47:10.957Z,28.92
2023-10-03T02:47:41.257Z,28.91
2023-10-03T02:48:11.213Z,28.92
2023-10-03T02:48:41.285Z,28.89
2023-10-03T02:49:11.319Z,28.91
2023-10-03T02:49:41.355Z,28.89
2023-10-03T02:50:11.392Z,28.89
2023-10-03T02:50:41.456Z,28.91
2023-10-03T02:51:11.494Z,28.89
2023-10-03T02:51:41.530Z,28.89
2023-10-03T02:52:11.581Z,28.91
2023-10-03T02:52:41.592Z,28.88
2023-10-03T02:53:11.625Z,28.92
2023-10-03T02:53:41.798Z,28.89
2023-10-03T02:54:11.749Z,28.89
2023-10-03T02:54:41.779Z,28.89
2023-10-03T02:55:11.816Z,28.91
2023-10-03T02:55:41.845Z,28.89
2023-10-03T02:56:11.870Z,28.89
2023-10-03T02:56:41.982Z,28.91
2023-10-03T02:57:11.916Z,28.91
2023-10-03T02:57:41.977Z,28.89
2023-10-03T02:58:11.997Z,28.91
2023-10-03T02:58:42.058Z,28.89
2023-10-03T02:59:12.126Z,28.91
2023-10-03T02:59:42.226Z,28.91
2023-10-03T03:00:12.306Z,28.89
2023-10-03T03:00:42.371Z,28.88
2023-10-03T03:01:12.523Z,28.89
2023-10-03T03:01:42.505Z,28.89
2023-10-03T03:02:12.567Z,28.89
2023-10-03T03:02:42.749Z,28.89
2023-10-03T03:03:12.738Z,28.88
2023-10-03T03:03:42.846Z,28.89
2023-10-03T03:04:12.878Z,28.88
2023-10-03T03:04:42.865Z,28.89
2023-10-03T03:05:12.941Z,28.89
2023-10-03T03:05:43.049Z,28.91
2023-10-03T03:06:13.202Z,28.86
2023-10-03T03:06:43.247Z,28.89
2023-10-03T03:07:13.342Z,28.88
2023-10-03T03:07:43.445Z,28.89
2023-10-03T03:08:13.516Z,28.88
2023-10-03T03:08:43.600Z,28.88
2023-10-03T03:09:13.684Z,28.86
2023-10-03T03:09:43.728Z,28.88
2023-10-03T03:10:13.807Z,28.89
2023-10-03T03:10:43.870Z,28.91
2023-10-03T03:11:13.946Z,28.89
2023-10-03T03:11:44.041Z,28.86
2023-10-03T03:12:14.132Z,28.88
2023-10-03T03:12:44.242Z,28.89
2023-10-03T03:13:14.323Z,28.88
2023-10-03T03:13:44.381Z,28.91
2023-10-03T03:14:14.444Z,28.88
2023-10-03T03:14:44.551Z,28.89
2023-10-03T03:15:14.605Z,28.88
2023-10-03T03:15:44.697Z,28.88
2023-10-03T03:16:14.810Z,28.88
2023-10-03T03:16:44.883Z,28.88
2023-10-03T03:17:15.297Z,28.88
2023-10-03T03:17:45.164Z,28.89
2023-10-03T03:18:15.229Z,28.86
2023-10-03T03:18:45.618Z,28.88
2023-10-03T03:19:15.210Z,28.89
2023-10-03T03:19:45.291Z,28.88
2023-10-03T03:20:15.355Z,28.88
2023-10-03T03:20:45.507Z,28.88
2023-10-03T03:21:15.946Z,28.88
2023-10-03T03:21:45.563Z,28.86
2023-10-03T03:22:15.624Z,28.88
2023-10-03T03:22:45.696Z,28.88
2023-10-03T03:23:15.774Z,28.88
2023-10-03T03:23:45.884Z,28.88
2023-10-03T03:24:15.968Z,28.86
2023-10-03T03:24:46.013Z,28.88
2023-10-03T03:25:16.084Z,28.89
2023-10-03T03:25:46.165Z,28.91
2023-10-03T03:26:16.324Z,28.89
2023-10-03T03:26:46.275Z,28.88
2023-10-03T03:27:16.355Z,28.86
2023-10-03T03:27:46.438Z,28.89
2023-10-03T03:28:16.522Z,28.85
2023-10-03T03:28:46.593Z,28.86
2023-10-03T03:29:16.651Z,28.86
2023-10-03T03:29:46.827Z,28.88
2023-10-03T03:30:16.846Z,28.86
2023-10-03T03:30:46.912Z,28.88
2023-10-03T03:31:16.994Z,28.88
2023-10-03T03:31:47.085Z,28.88
2023-10-03T03:32:17.070Z,28.85
2023-10-03T03:32:47.211Z,28.86
2023-10-03T03:33:17.266Z,28.86
2023-10-03T03:33:47.411Z,28.86
2023-10-03T03:34:17.309Z,28.85
2023-10-03T03:34:47.298Z,28.86
2023-10-03T03:35:17.419Z,28.86
2023-10-03T03:35:47.529Z,28.85
2023-10-03T03:36:17.579Z,28.85
2023-10-03T03:36:47.784Z,28.85
2023-10-03T03:37:17.653Z,28.86
2023-10-03T03:37:47.732Z,28.84
2023-10-03T03:38:17.806Z,28.86
2023-10-03T03:38:47.904Z,28.86
2023-10-03T03:39:17.981Z,28.86
2023-10-03T03:39:48.055Z,28.88
2023-10-03T03:40:18.136Z,28.89
2023-10-03T03:40:48.205Z,28.86
2023-10-03T03:41:18.465Z,28.85
2023-10-03T03:41:48.380Z,28.86
2023-10-03T03:42:18.340Z,28.88
2023-10-03T03:42:48.405Z,28.88
2023-10-03T03:43:18.477Z,28.88
2023-10-03T03:43:48.553Z,28.86
2023-10-03T03:44:18.652Z,28.89
2023-10-03T03:44:48.796Z,28.86
2023-10-03T03:45:18.749Z,28.86
2023-10-03T03:45:48.855Z,28.88
2023-10-03T03:46:18.937Z,28.88
2023-10-03T03:46:49.007Z,28.89
2023-10-03T03:47:19.120Z,28.89
2023-10-03T03:47:49.263Z,28.89
2023-10-03T03:48:19.322Z,28.91
2023-10-03T03:48:49.280Z,28.88
2023-10-03T03:49:19.321Z,28.92
2023-10-03T03:49:49.359Z,28.89
2023-10-03T03:50:19.416Z,28.89
2023-10-03T03:50:49.476Z,28.91
2023-10-03T03:51:19.515Z,28.92
2023-10-03T03:51:49.553Z,28.94
2023-10-03T03:52:19.615Z,28.94
2023-10-03T03:52:49.642Z,28.95
2023-10-03T03:53:19.711Z,28.96
2023-10-03T03:53:49.781Z,28.92
2023-10-03T03:54:19.795Z,28.96
2023-10-03T03:54:49.855Z,28.92
2023-10-03T03:55:19.866Z,28.95
2023-10-03T03:55:49.905Z,28.95
2023-10-03T03:56:19.950Z,28.95
2023-10-03T03:56:50.079Z,28.96
2023-10-03T03:57:19.980Z,28.96
2023-10-03T03:57:50.013Z,28.98
2023-10-03T03:58:20.057Z,28.98
2023-10-03T03:58:50.255Z,28.96
2023-10-03T03:59:20.250Z,28.99
2023-10-03T03:59:50.237Z,28.99
2023-10-03T04:00:20.198Z,28.98
2023-10-03T04:00:50.291Z,28.96
2023-10-03T04:01:20.389Z,29.02
2023-10-03T04:01:50.458Z,28.98
2023-10-03T04:02:20.612Z,29.01
2023-10-03T04:02:50.652Z,28.98
2023-10-03T04:03:20.723Z,28.99
2023-10-03T04:03:50.760Z,28.99
2023-10-03T04:04:20.769Z,29.01
2023-10-03T04:04:50.831Z,28.99
2023-10-03T04:05:20.902Z,28.99
2023-10-03T04:05:51.019Z,29.01
2023-10-03T04:06:21.130Z,29.01
2023-10-03T04:06:51.117Z,29.02
2023-10-03T04:07:21.193Z,29.01
2023-10-03T04:07:51.272Z,29.02
2023-10-03T04:08:21.367Z,29.01
2023-10-03T04:09:06.789Z,29.02
2023-10-03T04:09:21.626Z,29.02
2023-10-03T04:09:51.557Z,29.02
2023-10-03T04:10:21.950Z,29.03
2023-10-03T04:10:51.737Z,29.05
2023-10-03T04:11:51.847Z,29.05
2023-10-03T04:12:21.943Z,29.05
2023-10-03T04:12:52.030Z,29.03
2023-10-03T04:13:22.093Z,29.05
2023-10-03T04:13:52.164Z,29.05
2023-10-03T04:14:22.264Z,29.06
2023-10-03T04:14:52.363Z,29.03
2023-10-03T04:15:22.412Z,29.03
2023-10-03T04:15:52.501Z,29.05
2023-10-03T04:16:22.600Z,29.07
2023-10-03T04:16:52.667Z,29.05
2023-10-03T04:17:22.835Z,29.06
2023-10-03T04:17:52.877Z,29.07
2023-10-03T04:18:23.046Z,29.06
2023-10-03T04:18:53.030Z,29.07
2023-10-03T04:19:23.108Z,29.07
2023-10-03T04:19:53.175Z,29.09
2023-10-03T04:20:23.277Z,29.07
2023-10-03T04:20:53.364Z,29.06
2023-10-03T04:21:23.445Z,29.07
2023-10-03T04:21:53.534Z,29.07
2023-10-03T04:22:23.612Z,29.06
2023-10-03T04:22:53.702Z,29.09
2023-10-03T04:23:23.821Z,29.06
2023-10-03T04:23:53.755Z,29.07
2023-10-03T04:24:23.861Z,29.07
2023-10-03T04:24:53.921Z,29.10
2023-10-03T04:25:24.000Z,29.07
2023-10-03T04:25:54.086Z,29.09
2023-10-03T04:26:24.195Z,29.07
2023-10-03T04:26:54.355Z,29.07
2023-10-03T04:27:24.289Z,29.09
2023-10-03T04:27:54.360Z,29.07
2023-10-03T04:28:24.429Z,29.07
2023-10-03T04:28:54.506Z,29.09
2023-10-03T04:29:24.612Z,29.10
2023-10-03T04:29:54.632Z,29.09
2023-10-03T04:30:24.603Z,29.09
2023-10-03T04:30:54.751Z,29.09
2023-10-03T04:31:24.785Z,29.07
2023-10-03T04:31:54.719Z,29.12
2023-10-03T04:32:24.872Z,29.06
2023-10-03T04:32:54.922Z,29.10
2023-10-03T04:33:25.052Z,29.06
2023-10-03T04:33:55.052Z,29.10
2023-10-03T04:34:25.125Z,29.09
2023-10-03T04:34:55.217Z,29.09
2023-10-03T04:35:25.364Z,29.07
2023-10-03T04:35:55.371Z,29.09
2023-10-03T04:36:25.383Z,29.09
2023-10-03T04:36:55.463Z,29.06
2023-10-03T04:37:25.534Z,29.12
2023-10-03T04:37:55.602Z,29.07
2023-10-03T04:38:25.709Z,29.09
2023-10-03T04:38:55.791Z,29.10
2023-10-03T04:39:25.778Z,29.09
2023-10-03T04:39:55.846Z,29.09
2023-10-03T04:40:25.941Z,29.10
2023-10-03T04:40:56.024Z,29.10
2023-10-03T04:41:26.226Z,29.09
2023-10-03T04:41:56.190Z,29.09
2023-10-03T04:42:26.425Z,29.10
2023-10-03T04:42:56.317Z,29.10
2023-10-03T04:43:26.271Z,29.09
2023-10-03T04:43:56.335Z,29.09
2023-10-03T04:44:26.444Z,29.09
2023-10-03T04:44:56.544Z,29.10
2023-10-03T04:45:26.588Z,29.10
2023-10-03T04:45:56.555Z,29.12
2023-10-03T04:46:26.644Z,29.12
2023-10-03T04:46:56.714Z,29.09
2023-10-03T04:47:26.839Z,29.10
2023-10-03T04:47:56.981Z,29.10
2023-10-03T04:48:27.025Z,29.09
2023-10-03T04:48:56.957Z,29.12
2023-10-03T04:49:27.002Z,29.10
2023-10-03T04:49:57.059Z,29.10
2023-10-03T04:50:27.466Z,29.10
2023-10-03T04:50:57.207Z,29.10
2023-10-03T04:51:27.248Z,29.07
2023-10-03T04:51:57.268Z,29.09
2023-10-03T04:52:27.290Z,29.10
2023-10-03T04:52:57.324Z,29.10
2023-10-03T04:53:27.421Z,29.10
2023-10-03T04:53:59.659Z,29.07
2023-10-03T04:54:27.451Z,29.09
2023-10-03T04:54:57.476Z,29.09
2023-10-03T04:55:27.506Z,29.07
2023-10-03T04:55:57.541Z,29.09
2023-10-03T04:56:27.608Z,29.07
2023-10-03T04:56:57.708Z,29.09
2023-10-03T04:57:27.730Z,29.10
2023-10-03T04:57:57.773Z,29.07
2023-10-03T04:58:27.823Z,29.09
2023-10-03T04:58:57.913Z,29.09
2023-10-03T04:59:28.000Z,29.09
2023-10-03T04:59:58.118Z,29.10
2023-10-03T05:00:28.178Z,29.07
2023-10-03T05:00:58.255Z,29.09
2023-10-03T05:01:28.387Z,29.09
2023-10-03T05:01:58.337Z,29.09
2023-10-03T05:02:28.555Z,29.09
2023-10-03T05:02:58.615Z,29.07
2023-10-03T05:03:28.598Z,29.06
2023-10-03T05:03:58.749Z,29.10
2023-10-03T05:04:28.637Z,29.09
2023-10-03T05:04:58.627Z,29.13
2023-10-03T05:05:28.717Z,29.09
2023-10-03T05:05:58.865Z,29.09
2023-10-03T05:06:28.908Z,29.06
2023-10-03T05:06:58.982Z,29.07
2023-10-03T05:07:29.057Z,29.07
2023-10-03T05:07:59.133Z,29.09
2023-10-03T05:08:29.234Z,29.09
2023-10-03T05:08:59.331Z,29.09
2023-10-03T05:09:29.413Z,29.06
2023-10-03T05:09:59.487Z,29.07
2023-10-03T05:10:29.548Z,29.06
2023-10-03T05:10:59.612Z,29.06
2023-10-03T05:11:29.699Z,29.09
2023-10-03T05:11:59.856Z,29.06
2023-10-03T05:12:29.814Z,29.07
2023-10-03T05:12:59.889Z,29.07
2023-10-03T05:13:29.968Z,29.07
2023-10-03T05:14:00.041Z,29.07
2023-10-03T05:14:30.157Z,29.06
2023-10-03T05:15:00.342Z,29.07
2023-10-03T05:15:30.336Z,29.06
2023-10-03T05:16:00.402Z,29.06
2023-10-03T05:16:30.533Z,29.05
2023-10-03T05:17:00.612Z,29.05
2023-10-03T05:17:30.647Z,29.06
2023-10-03T05:18:00.771Z,29.03
2023-10-03T05:18:30.851Z,29.05
2023-10-03T05:19:01.021Z,29.03
2023-10-03T05:19:30.875Z,29.03
2023-10-03T05:20:00.951Z,29.05
2023-10-03T05:20:31.063Z,29.03
2023-10-03T05:21:01.180Z,29.05
2023-10-03T05:21:31.134Z,29.06
2023-10-03T05:22:01.217Z,29.06
2023-10-03T05:22:31.285Z,29.03
2023-10-03T05:23:01.366Z,29.02
2023-10-03T05:23:31.437Z,29.02
2023-10-03T05:24:01.545Z,29.03
2023-10-03T05:24:31.593Z,29.02
2023-10-03T05:25:01.684Z,29.03
2023-10-03T05:25:31.734Z,29.03
2023-10-03T05:26:01.809Z,29.02
2023-10-03T05:26:31.971Z,29.01
2023-10-03T05:27:02.044Z,29.03
2023-10-03T05:27:31.926Z,29.02
2023-10-03T05:28:02.017Z,29.03
2023-10-03T05:28:32.072Z,29.01
2023-10-03T05:29:02.321Z,29.03
2023-10-03T05:29:32.214Z,29.01
2023-10-03T05:30:02.227Z,29.05
2023-10-03T05:30:32.161Z,29.03
2023-10-03T05:31:02.283Z,29.02
2023-10-03T05:31:32.346Z,28.99
2023-10-03T05:32:02.423Z,29.02
2023-10-03T05:32:32.555Z,29.03
2023-10-03T05:33:02.782Z,29.01
2023-10-03T05:33:32.705Z,29.03
2023-10-03T05:34:02.665Z,28.99
2023-10-03T05:34:32.733Z,29.01
2023-10-03T05:35:02.822Z,28.99
2023-10-03T05:35:32.938Z,29.01
2023-10-03T05:36:03.118Z,28.99
2023-10-03T05:36:33.096Z,29.03
2023-10-03T05:37:03.176Z,28.98
2023-10-03T05:37:33.244Z,28.98
2023-10-03T05:38:03.313Z,28.98
2023-10-03T05:38:33.455Z,28.96
2023-10-03T05:39:03.633Z,28.96
2023-10-03T05:39:33.415Z,28.96
2023-10-03T05:40:03.487Z,28.95
2023-10-03T05:40:33.578Z,28.94
2023-10-03T05:41:03.655Z,28.96
2023-10-03T05:41:33.771Z,28.95
2023-10-03T05:42:03.879Z,28.95
2023-10-03T05:42:33.873Z,28.96
2023-10-03T05:43:06.230Z,28.96
2023-10-03T05:43:34.006Z,28.95
2023-10-03T05:44:05.021Z,28.99
2023-10-03T05:44:34.218Z,28.96
2023-10-03T05:45:04.281Z,28.92
2023-10-03T05:45:34.259Z,28.95
2023-10-03T05:46:04.326Z,28.94
2023-10-03T05:46:34.431Z,28.94
2023-10-03T05:47:04.495Z,28.94
2023-10-03T05:47:34.603Z,28.94
2023-10-03T05:48:04.685Z,28.95
2023-10-03T05:48:34.759Z,28.94
2023-10-03T05:49:04.855Z,28.95
2023-10-03T05:49:34.809Z,28.95
2023-10-03T05:50:04.917Z,28.94
2023-10-03T05:50:35.176Z,28.92
2023-10-03T05:51:05.003Z,28.95
2023-10-03T05:51:34.959Z,28.92
2023-10-03T05:52:05.001Z,28.94
2023-10-03T05:52:35.028Z,28.95
2023-10-03T05:53:05.060Z,28.96
2023-10-03T05:53:35.164Z,28.95
2023-10-03T05:54:05.234Z,28.94
2023-10-03T05:54:35.276Z,28.94
2023-10-03T05:55:05.394Z,28.92
2023-10-03T05:55:35.418Z,28.95
2023-10-03T05:56:05.446Z,28.94
2023-10-03T05:56:35.519Z,28.92
2023-10-03T05:57:05.714Z,28.96
2023-10-03T05:57:35.612Z,28.95
2023-10-03T05:58:05.637Z,28.94
2023-10-03T05:58:35.703Z,28.95
2023-10-03T05:59:05.781Z,28.91
2023-10-03T05:59:35.976Z,28.89
2023-10-03T06:00:05.993Z,28.92
2023-10-03T06:00:35.936Z,28.91
2023-10-03T06:01:06.065Z,28.92
2023-10-03T06:01:36.064Z,28.92
2023-10-03T06:02:06.139Z,28.94
2023-10-03T06:02:36.317Z,28.95
2023-10-03T06:03:06.350Z,28.94
2023-10-03T06:03:36.432Z,28.94
2023-10-03T06:04:06.637Z,28.94
2023-10-03T06:04:36.451Z,28.94
2023-10-03T06:05:06.501Z,28.94
2023-10-03T06:05:36.634Z,28.92
2023-10-03T06:06:06.617Z,28.94
2023-10-03T06:06:36.674Z,28.95
2023-10-03T06:07:06.740Z,28.94
2023-10-03T06:07:36.813Z,28.91
2023-10-03T06:08:06.881Z,28.91
2023-10-03T06:08:37.005Z,28.95
2023-10-03T06:09:07.102Z,28.94
2023-10-03T06:09:37.067Z,28.92
2023-10-03T06:10:07.135Z,28.92
2023-10-03T06:10:37.209Z,28.94
2023-10-03T06:11:07.284Z,28.92
2023-10-03T06:11:37.385Z,28.92
2023-10-03T06:12:07.540Z,28.94
2023-10-03T06:12:37.488Z,28.95
2023-10-03T06:13:07.558Z,28.94
2023-10-03T06:13:37.637Z,28.96
2023-10-03T06:14:07.706Z,28.98
2023-10-03T06:14:37.792Z,28.96
2023-10-03T06:15:07.877Z,28.95
2023-10-03T06:15:37.944Z,28.96
2023-10-03T06:16:08.011Z,28.98
2023-10-03T06:16:38.127Z,28.94
2023-10-03T06:17:08.196Z,28.96
2023-10-03T06:17:38.320Z,28.92
2023-10-03T06:18:08.475Z,28.92
2023-10-03T06:18:38.652Z,28.95
2023-10-03T06:19:08.554Z,28.94
2023-10-03T06:19:38.605Z,28.92
2023-10-03T06:20:08.677Z,28.92
2023-10-03T06:20:38.847Z,28.89
2023-10-03T06:21:11.976Z,28.92
2023-10-03T06:21:38.979Z,28.88
2023-10-03T06:22:08.967Z,28.95
2023-10-03T06:22:39.042Z,28.92
2023-10-03T06:23:09.114Z,28.92
2023-10-03T06:23:39.245Z,28.92
2023-10-03T06:24:09.185Z,28.91
2023-10-03T06:24:39.268Z,28.92
2023-10-03T06:25:09.346Z,28.94
2023-10-03T06:25:39.427Z,28.91
2023-10-03T06:26:09.491Z,28.94
2023-10-03T06:26:39.601Z,28.91
2023-10-03T06:27:09.740Z,28.91
2023-10-03T06:27:39.687Z,28.91
2023-10-03T06:28:09.740Z,28.91
2023-10-03T06:28:39.812Z,28.91